sensor_id;sensor_type;location;lat;lon;timestamp;temperature;humidity
45729;DHT22;31439;53.512;10.206;2023-02-15T00:02:00;6.30;99.90
45729;DHT22;31439;53.512;10.206;2023-02-15T00:04:26;6.30;99.90
45729;DHT22;31439;53.512;10.206;2023-02-15T00:07:15;6.20;99.90
45729;DHT22;31439;53.512;10.206;2023-02-15T00:09:41;6.20;99.90
45729;DHT22;31439;53.512;10.206;2023-02-15T00:12:06;6.20;99.90
45729;DHT22;31439;53.512;10.206;2023-02-15T00:14:32;6.20;99.90
45729;DHT22;31439;53.512;10.206;2023-02-15T00:16:58;6.20;99.90
45729;DHT22;31439;53.512;10.206;2023-02-15T00:19:25;6.20;99.90
45729;DHT22;31439;53.512;10.206;2023-02-15T00:21:51;6.20;99.90
45729;DHT22;31439;53.512;10.206;2023-02-15T00:24:18;6.30;99.90
45729;DHT22;31439;53.512;10.206;2023-02-15T00:26:45;6.20;99.90
45729;DHT22;31439;53.512;10.206;2023-02-15T00:29:12;6.30;99.90
45729;DHT22;31439;53.512;10.206;2023-02-15T00:31:38;6.30;99.90
45729;DHT22;31439;53.512;10.206;2023-02-15T00:34:11;6.30;99.90
45729;DHT22;31439;53.512;10.206;2023-02-15T00:36:37;6.30;99.90
45729;DHT22;31439;53.512;10.206;2023-02-15T00:39:03;6.30;99.90
45729;DHT22;31439;53.512;10.206;2023-02-15T00:41:30;6.20;99.90
45729;DHT22;31439;53.512;10.206;2023-02-15T00:43:59;6.20;99.90
45729;DHT22;31439;53.512;10.206;2023-02-15T00:46:25;6.20;99.90
45729;DHT22;31439;53.512;10.206;2023-02-15T00:48:50;6.00;99.90
45729;DHT22;31439;53.512;10.206;2023-02-15T00:51:16;6.20;99.90
45729;DHT22;31439;53.512;10.206;2023-02-15T00:53:43;6.20;99.90
45729;DHT22;31439;53.512;10.206;2023-02-15T00:56:10;6.20;99.90
45729;DHT22;31439;53.512;10.206;2023-02-15T00:58:36;6.20;99.90
45729;DHT22;31439;53.512;10.206;2023-02-15T01:01:07;6.20;99.90
45729;DHT22;31439;53.512;10.206;2023-02-15T01:03:34;6.10;99.90
45729;DHT22;31439;53.512;10.206;2023-02-15T01:05:59;6.20;99.90
45729;DHT22;31439;53.512;10.206;2023-02-15T01:08:25;6.10;99.90
45729;DHT22;31439;53.512;10.206;2023-02-15T01:10:51;6.10;99.90
45729;DHT22;31439;53.512;10.206;2023-02-15T01:13:17;6.10;99.90
45729;DHT22;31439;53.512;10.206;2023-02-15T01:15:43;6.10;99.90
45729;DHT22;31439;53.512;10.206;2023-02-15T01:18:10;6.10;99.90
45729;DHT22;31439;53.512;10.206;2023-02-15T01:20:37;6.10;99.90
45729;DHT22;31439;53.512;10.206;2023-02-15T01:23:05;6.00;99.90
45729;DHT22;31439;53.512;10.206;2023-02-15T01:25:34;6.00;99.90
45729;DHT22;31439;53.512;10.206;2023-02-15T01:28:00;5.90;99.90
45729;DHT22;31439;53.512;10.206;2023-02-15T01:30:26;6.00;99.90
45729;DHT22;31439;53.512;10.206;2023-02-15T01:32:52;5.90;99.90
45729;DHT22;31439;53.512;10.206;2023-02-15T01:35:17;5.90;99.90
45729;DHT22;31439;53.512;10.206;2023-02-15T01:37:43;5.90;99.90
45729;DHT22;31439;53.512;10.206;2023-02-15T01:40:13;5.80;99.90
45729;DHT22;31439;53.512;10.206;2023-02-15T01:42:39;5.90;99.90
45729;DHT22;31439;53.512;10.206;2023-02-15T01:45:27;5.90;99.90
45729;DHT22;31439;53.512;10.206;2023-02-15T01:48:22;5.90;99.90
45729;DHT22;31439;53.512;10.206;2023-02-15T01:50:59;5.90;99.90
45729;DHT22;31439;53.512;10.206;2023-02-15T01:53:33;5.80;99.90
45729;DHT22;31439;53.512;10.206;2023-02-15T01:56:09;5.90;99.90
45729;DHT22;31439;53.512;10.206;2023-02-15T01:58:37;5.80;99.90
45729;DHT22;31439;53.512;10.206;2023-02-15T02:01:04;5.90;99.90
45729;DHT22;31439;53.512;10.206;2023-02-15T02:06:06;5.80;99.90
45729;DHT22;31439;53.512;10.206;2023-02-15T02:08:32;5.80;99.90
45729;DHT22;31439;53.512;10.206;2023-02-15T02:10:58;5.70;99.90
45729;DHT22;31439;53.512;10.206;2023-02-15T02:13:24;5.70;99.90
45729;DHT22;31439;53.512;10.206;2023-02-15T02:18:53;5.70;99.90
45729;DHT22;31439;53.512;10.206;2023-02-15T02:27:18;5.70;99.90
45729;DHT22;31439;53.512;10.206;2023-02-15T02:40:42;5.60;99.90
45729;DHT22;31439;53.512;10.206;2023-02-15T02:43:22;5.70;99.90
45729;DHT22;31439;53.512;10.206;2023-02-15T02:48:30;5.70;99.90
45729;DHT22;31439;53.512;10.206;2023-02-15T02:50:57;5.70;99.90
45729;DHT22;31439;53.512;10.206;2023-02-15T02:53:23;5.60;99.90
45729;DHT22;31439;53.512;10.206;2023-02-15T02:56:24;5.60;99.90
45729;DHT22;31439;53.512;10.206;2023-02-15T02:58:59;5.50;99.90
45729;DHT22;31439;53.512;10.206;2023-02-15T03:01:34;5.50;99.90
45729;DHT22;31439;53.512;10.206;2023-02-15T03:04:12;5.50;99.90
45729;DHT22;31439;53.512;10.206;2023-02-15T03:06:45;5.50;99.90
45729;DHT22;31439;53.512;10.206;2023-02-15T03:09:36;5.40;99.90
45729;DHT22;31439;53.512;10.206;2023-02-15T03:12:13;5.60;99.90
45729;DHT22;31439;53.512;10.206;2023-02-15T03:14:41;5.40;99.90
45729;DHT22;31439;53.512;10.206;2023-02-15T03:17:09;5.40;99.90
45729;DHT22;31439;53.512;10.206;2023-02-15T03:19:37;5.40;99.90
45729;DHT22;31439;53.512;10.206;2023-02-15T03:22:07;5.30;99.90
45729;DHT22;31439;53.512;10.206;2023-02-15T03:27:04;5.30;99.90
45729;DHT22;31439;53.512;10.206;2023-02-15T03:29:32;5.20;99.90
45729;DHT22;31439;53.512;10.206;2023-02-15T03:32:01;5.20;99.90
45729;DHT22;31439;53.512;10.206;2023-02-15T03:34:28;5.20;99.90
45729;DHT22;31439;53.512;10.206;2023-02-15T03:36:58;5.20;99.90
45729;DHT22;31439;53.512;10.206;2023-02-15T03:39:53;5.20;99.90
45729;DHT22;31439;53.512;10.206;2023-02-15T03:42:26;5.20;99.90
45729;DHT22;31439;53.512;10.206;2023-02-15T03:45:01;5.10;99.90
45729;DHT22;31439;53.512;10.206;2023-02-15T03:47:32;5.10;99.90
45729;DHT22;31439;53.512;10.206;2023-02-15T03:52:57;5.10;99.90
45729;DHT22;31439;53.512;10.206;2023-02-15T03:55:23;5.10;99.90
45729;DHT22;31439;53.512;10.206;2023-02-15T03:57:49;5.10;99.90
45729;DHT22;31439;53.512;10.206;2023-02-15T04:00:37;5.00;99.90
45729;DHT22;31439;53.512;10.206;2023-02-15T04:05:49;5.00;99.90
45729;DHT22;31439;53.512;10.206;2023-02-15T04:08:15;4.90;99.90
45729;DHT22;31439;53.512;10.206;2023-02-15T04:10:41;4.90;99.90
45729;DHT22;31439;53.512;10.206;2023-02-15T04:13:30;4.80;99.90
45729;DHT22;31439;53.512;10.206;2023-02-15T04:15:56;4.80;99.90
45729;DHT22;31439;53.512;10.206;2023-02-15T04:18:42;4.90;99.90
45729;DHT22;31439;53.512;10.206;2023-02-15T04:21:28;4.90;99.90
45729;DHT22;31439;53.512;10.206;2023-02-15T04:24:14;4.80;99.90
45729;DHT22;31439;53.512;10.206;2023-02-15T04:26:59;4.80;99.90
45729;DHT22;31439;53.512;10.206;2023-02-15T04:29:26;4.80;99.90
45729;DHT22;31439;53.512;10.206;2023-02-15T04:31:53;4.70;99.90
45729;DHT22;31439;53.512;10.206;2023-02-15T04:34:20;4.60;99.90
45729;DHT22;31439;53.512;10.206;2023-02-15T04:36:46;4.60;99.90
45729;DHT22;31439;53.512;10.206;2023-02-15T04:39:16;4.60;99.90
45729;DHT22;31439;53.512;10.206;2023-02-15T04:41:42;4.50;99.90
45729;DHT22;31439;53.512;10.206;2023-02-15T04:44:08;4.60;99.90
45729;DHT22;31439;53.512;10.206;2023-02-15T04:46:34;4.50;99.90
45729;DHT22;31439;53.512;10.206;2023-02-15T04:49:00;4.50;99.90
45729;DHT22;31439;53.512;10.206;2023-02-15T04:51:25;4.50;99.90
45729;DHT22;31439;53.512;10.206;2023-02-15T04:53:51;4.40;99.90
45729;DHT22;31439;53.512;10.206;2023-02-15T04:56:18;4.40;99.90
45729;DHT22;31439;53.512;10.206;2023-02-15T04:58:44;4.50;99.90
45729;DHT22;31439;53.512;10.206;2023-02-15T05:01:10;4.50;99.90
45729;DHT22;31439;53.512;10.206;2023-02-15T05:03:36;4.40;99.90
45729;DHT22;31439;53.512;10.206;2023-02-15T05:06:03;4.40;99.90
45729;DHT22;31439;53.512;10.206;2023-02-15T05:08:29;4.30;99.90
45729;DHT22;31439;53.512;10.206;2023-02-15T05:10:54;4.30;99.90
45729;DHT22;31439;53.512;10.206;2023-02-15T05:13:20;4.30;99.90
45729;DHT22;31439;53.512;10.206;2023-02-15T05:15:53;4.30;99.90
45729;DHT22;31439;53.512;10.206;2023-02-15T05:18:20;4.30;99.90
45729;DHT22;31439;53.512;10.206;2023-02-15T05:20:46;4.20;99.90
45729;DHT22;31439;53.512;10.206;2023-02-15T05:23:12;4.20;99.90
45729;DHT22;31439;53.512;10.206;2023-02-15T05:25:38;4.30;99.90
45729;DHT22;31439;53.512;10.206;2023-02-15T05:28:24;4.30;99.90
45729;DHT22;31439;53.512;10.206;2023-02-15T05:31:13;4.20;99.90
45729;DHT22;31439;53.512;10.206;2023-02-15T05:33:38;4.30;99.90
45729;DHT22;31439;53.512;10.206;2023-02-15T05:36:04;4.20;99.90
45729;DHT22;31439;53.512;10.206;2023-02-15T05:38:30;4.10;99.90
45729;DHT22;31439;53.512;10.206;2023-02-15T05:40:56;4.20;99.90
45729;DHT22;31439;53.512;10.206;2023-02-15T05:43:23;4.10;99.90
45729;DHT22;31439;53.512;10.206;2023-02-15T05:45:50;4.10;99.90
45729;DHT22;31439;53.512;10.206;2023-02-15T05:48:17;4.10;99.90
45729;DHT22;31439;53.512;10.206;2023-02-15T05:50:43;4.10;99.90
45729;DHT22;31439;53.512;10.206;2023-02-15T05:53:09;4.10;99.90
45729;DHT22;31439;53.512;10.206;2023-02-15T05:55:38;4.10;99.90
45729;DHT22;31439;53.512;10.206;2023-02-15T05:58:04;4.10;99.90
45729;DHT22;31439;53.512;10.206;2023-02-15T06:00:30;4.10;99.90
45729;DHT22;31439;53.512;10.206;2023-02-15T06:02:56;4.10;99.90
45729;DHT22;31439;53.512;10.206;2023-02-15T06:05:21;4.10;99.90
45729;DHT22;31439;53.512;10.206;2023-02-15T06:07:47;4.10;99.90
45729;DHT22;31439;53.512;10.206;2023-02-15T06:10:13;4.10;99.90
45729;DHT22;31439;53.512;10.206;2023-02-15T06:12:38;4.00;99.90
45729;DHT22;31439;53.512;10.206;2023-02-15T06:15:04;4.00;99.90
45729;DHT22;31439;53.512;10.206;2023-02-15T06:17:30;4.00;99.90
45729;DHT22;31439;53.512;10.206;2023-02-15T06:19:56;4.00;99.90
45729;DHT22;31439;53.512;10.206;2023-02-15T06:22:21;3.90;99.90
45729;DHT22;31439;53.512;10.206;2023-02-15T06:24:48;3.90;99.90
45729;DHT22;31439;53.512;10.206;2023-02-15T06:27:13;3.90;99.90
45729;DHT22;31439;53.512;10.206;2023-02-15T06:29:39;3.90;99.90
45729;DHT22;31439;53.512;10.206;2023-02-15T06:32:05;3.90;99.90
45729;DHT22;31439;53.512;10.206;2023-02-15T06:34:31;3.90;99.90
45729;DHT22;31439;53.512;10.206;2023-02-15T06:36:57;3.80;99.90
45729;DHT22;31439;53.512;10.206;2023-02-15T06:39:22;3.80;99.90
45729;DHT22;31439;53.512;10.206;2023-02-15T06:41:48;3.80;99.90
45729;DHT22;31439;53.512;10.206;2023-02-15T06:44:14;3.80;99.90
45729;DHT22;31439;53.512;10.206;2023-02-15T06:46:39;3.80;99.90
45729;DHT22;31439;53.512;10.206;2023-02-15T06:49:05;3.80;99.90
45729;DHT22;31439;53.512;10.206;2023-02-15T06:51:31;3.80;99.90
45729;DHT22;31439;53.512;10.206;2023-02-15T06:53:56;3.80;99.90
45729;DHT22;31439;53.512;10.206;2023-02-15T06:56:22;3.80;99.90
45729;DHT22;31439;53.512;10.206;2023-02-15T06:58:48;3.80;99.90
45729;DHT22;31439;53.512;10.206;2023-02-15T07:01:18;3.80;99.90
45729;DHT22;31439;53.512;10.206;2023-02-15T07:03:44;3.80;99.90
45729;DHT22;31439;53.512;10.206;2023-02-15T07:06:09;3.80;99.90
45729;DHT22;31439;53.512;10.206;2023-02-15T07:08:37;3.80;99.90
45729;DHT22;31439;53.512;10.206;2023-02-15T07:11:04;3.80;99.90
45729;DHT22;31439;53.512;10.206;2023-02-15T07:13:48;3.80;99.90
45729;DHT22;31439;53.512;10.206;2023-02-15T07:16:14;3.80;99.90
45729;DHT22;31439;53.512;10.206;2023-02-15T07:18:40;3.80;99.90
45729;DHT22;31439;53.512;10.206;2023-02-15T07:21:06;3.70;99.90
45729;DHT22;31439;53.512;10.206;2023-02-15T07:23:35;3.70;99.90
45729;DHT22;31439;53.512;10.206;2023-02-15T07:26:01;3.80;99.90
45729;DHT22;31439;53.512;10.206;2023-02-15T07:28:28;3.70;99.90
45729;DHT22;31439;53.512;10.206;2023-02-15T07:30:54;3.70;99.90
45729;DHT22;31439;53.512;10.206;2023-02-15T07:33:19;3.70;99.90
45729;DHT22;31439;53.512;10.206;2023-02-15T07:35:55;3.80;99.90
45729;DHT22;31439;53.512;10.206;2023-02-15T07:38:24;3.80;99.90
45729;DHT22;31439;53.512;10.206;2023-02-15T07:40:50;3.80;99.90
45729;DHT22;31439;53.512;10.206;2023-02-15T07:43:16;3.70;99.90
45729;DHT22;31439;53.512;10.206;2023-02-15T07:45:41;3.70;99.90
45729;DHT22;31439;53.512;10.206;2023-02-15T07:48:07;3.70;99.90
45729;DHT22;31439;53.512;10.206;2023-02-15T07:50:33;3.70;99.90
45729;DHT22;31439;53.512;10.206;2023-02-15T07:53:02;3.70;99.90
45729;DHT22;31439;53.512;10.206;2023-02-15T07:55:28;3.80;99.90
45729;DHT22;31439;53.512;10.206;2023-02-15T07:57:53;3.80;99.90
45729;DHT22;31439;53.512;10.206;2023-02-15T08:00:21;3.80;99.90
45729;DHT22;31439;53.512;10.206;2023-02-15T08:02:51;3.80;99.90
45729;DHT22;31439;53.512;10.206;2023-02-15T08:05:38;3.70;99.90
45729;DHT22;31439;53.512;10.206;2023-02-15T08:08:04;3.70;99.90
45729;DHT22;31439;53.512;10.206;2023-02-15T08:10:30;3.70;99.90
45729;DHT22;31439;53.512;10.206;2023-02-15T08:13:14;3.70;99.90
45729;DHT22;31439;53.512;10.206;2023-02-15T08:15:40;3.70;99.90
45729;DHT22;31439;53.512;10.206;2023-02-15T08:18:12;3.70;99.90
45729;DHT22;31439;53.512;10.206;2023-02-15T08:20:38;3.70;99.90
45729;DHT22;31439;53.512;10.206;2023-02-15T08:23:04;3.70;99.90
45729;DHT22;31439;53.512;10.206;2023-02-15T08:25:29;3.80;99.90
45729;DHT22;31439;53.512;10.206;2023-02-15T08:27:55;3.80;99.90
45729;DHT22;31439;53.512;10.206;2023-02-15T08:30:21;3.80;99.90
45729;DHT22;31439;53.512;10.206;2023-02-15T08:32:46;3.70;99.90
45729;DHT22;31439;53.512;10.206;2023-02-15T08:35:12;4.10;99.90
45729;DHT22;31439;53.512;10.206;2023-02-15T08:37:37;4.20;99.90
45729;DHT22;31439;53.512;10.206;2023-02-15T08:40:03;4.30;99.90
45729;DHT22;31439;53.512;10.206;2023-02-15T08:42:32;4.10;99.90
45729;DHT22;31439;53.512;10.206;2023-02-15T08:44:58;4.00;99.90
45729;DHT22;31439;53.512;10.206;2023-02-15T08:47:24;4.10;99.90
45729;DHT22;31439;53.512;10.206;2023-02-15T08:49:49;4.00;99.90
45729;DHT22;31439;53.512;10.206;2023-02-15T08:52:16;3.90;99.90
45729;DHT22;31439;53.512;10.206;2023-02-15T08:54:42;3.90;99.90
45729;DHT22;31439;53.512;10.206;2023-02-15T08:57:08;3.90;99.90
45729;DHT22;31439;53.512;10.206;2023-02-15T08:59:35;3.90;99.90
45729;DHT22;31439;53.512;10.206;2023-02-15T09:02:00;3.90;99.90
45729;DHT22;31439;53.512;10.206;2023-02-15T09:04:26;3.90;99.90
45729;DHT22;31439;53.512;10.206;2023-02-15T09:06:52;3.90;99.90
45729;DHT22;31439;53.512;10.206;2023-02-15T09:09:19;3.80;99.90
45729;DHT22;31439;53.512;10.206;2023-02-15T09:11:47;3.80;99.90
45729;DHT22;31439;53.512;10.206;2023-02-15T09:14:16;3.80;99.90
45729;DHT22;31439;53.512;10.206;2023-02-15T09:16:44;3.80;99.90
45729;DHT22;31439;53.512;10.206;2023-02-15T09:19:14;3.90;99.90
45729;DHT22;31439;53.512;10.206;2023-02-15T09:21:40;3.90;99.90
45729;DHT22;31439;53.512;10.206;2023-02-15T09:24:11;3.90;99.90
45729;DHT22;31439;53.512;10.206;2023-02-15T09:26:42;4.00;99.90
45729;DHT22;31439;53.512;10.206;2023-02-15T09:29:08;4.00;99.90
45729;DHT22;31439;53.512;10.206;2023-02-15T09:31:40;4.10;99.90
45729;DHT22;31439;53.512;10.206;2023-02-15T09:34:07;4.10;99.90
45729;DHT22;31439;53.512;10.206;2023-02-15T09:36:36;4.00;99.90
45729;DHT22;31439;53.512;10.206;2023-02-15T09:39:12;4.50;99.90
45729;DHT22;31439;53.512;10.206;2023-02-15T10:08:56;4.50;99.90
45729;DHT22;31439;53.512;10.206;2023-02-15T10:17:14;4.40;99.90
45729;DHT22;31439;53.512;10.206;2023-02-15T10:28:23;4.40;99.90
45729;DHT22;31439;53.512;10.206;2023-02-15T10:30:55;4.50;99.90
45729;DHT22;31439;53.512;10.206;2023-02-15T10:33:43;4.50;99.90
45729;DHT22;31439;53.512;10.206;2023-02-15T10:36:31;4.60;99.90
45729;DHT22;31439;53.512;10.206;2023-02-15T10:56:26;4.70;99.90
45729;DHT22;31439;53.512;10.206;2023-02-15T11:06:46;4.90;99.90
45729;DHT22;31439;53.512;10.206;2023-02-15T11:09:15;4.90;99.90
45729;DHT22;31439;53.512;10.206;2023-02-15T11:11:46;4.90;99.90
45729;DHT22;31439;53.512;10.206;2023-02-15T11:16:50;5.00;99.90
45729;DHT22;31439;53.512;10.206;2023-02-15T11:19:26;5.10;99.90
45729;DHT22;31439;53.512;10.206;2023-02-15T11:21:59;5.10;99.90
45729;DHT22;31439;53.512;10.206;2023-02-15T11:24:28;5.00;99.90
45729;DHT22;31439;53.512;10.206;2023-02-15T11:27:00;5.00;99.90
45729;DHT22;31439;53.512;10.206;2023-02-15T11:32:01;5.00;99.90
45729;DHT22;31439;53.512;10.206;2023-02-15T11:34:37;5.10;99.90
45729;DHT22;31439;53.512;10.206;2023-02-15T11:37:18;5.10;99.90
45729;DHT22;31439;53.512;10.206;2023-02-15T11:39:44;5.30;99.90
45729;DHT22;31439;53.512;10.206;2023-02-15T11:42:21;5.30;99.90
45729;DHT22;31439;53.512;10.206;2023-02-15T11:47:41;5.40;99.90
45729;DHT22;31439;53.512;10.206;2023-02-15T11:50:15;5.40;99.90
45729;DHT22;31439;53.512;10.206;2023-02-15T11:52:43;5.50;99.90
45729;DHT22;31439;53.512;10.206;2023-02-15T11:55:16;5.60;99.90
45729;DHT22;31439;53.512;10.206;2023-02-15T11:58:09;5.60;99.90
45729;DHT22;31439;53.512;10.206;2023-02-15T12:00:39;5.50;99.90
45729;DHT22;31439;53.512;10.206;2023-02-15T12:03:40;5.50;99.90
45729;DHT22;31439;53.512;10.206;2023-02-15T12:06:04;5.50;99.90
45729;DHT22;31439;53.512;10.206;2023-02-15T12:08:40;5.60;99.90
45729;DHT22;31439;53.512;10.206;2023-02-15T12:11:11;5.60;99.90
45729;DHT22;31439;53.512;10.206;2023-02-15T12:13:54;5.60;99.90
45729;DHT22;31439;53.512;10.206;2023-02-15T12:16:20;5.60;99.90
45729;DHT22;31439;53.512;10.206;2023-02-15T12:18:47;5.60;99.90
45729;DHT22;31439;53.512;10.206;2023-02-15T12:21:34;5.60;99.90
45729;DHT22;31439;53.512;10.206;2023-02-15T12:24:23;5.70;99.90
45729;DHT22;31439;53.512;10.206;2023-02-15T12:27:16;5.70;99.90
45729;DHT22;31439;53.512;10.206;2023-02-15T12:29:46;5.80;99.90
45729;DHT22;31439;53.512;10.206;2023-02-15T12:32:46;5.90;99.90
45729;DHT22;31439;53.512;10.206;2023-02-15T12:35:33;5.90;99.90
45729;DHT22;31439;53.512;10.206;2023-02-15T12:40:29;6.10;99.90
45729;DHT22;31439;53.512;10.206;2023-02-15T12:42:55;6.20;99.90
45729;DHT22;31439;53.512;10.206;2023-02-15T12:45:32;6.20;99.90
45729;DHT22;31439;53.512;10.206;2023-02-15T12:48:20;6.10;99.90
45729;DHT22;31439;53.512;10.206;2023-02-15T12:50:47;6.10;99.90
45729;DHT22;31439;53.512;10.206;2023-02-15T12:53:19;6.20;99.90
45729;DHT22;31439;53.512;10.206;2023-02-15T12:55:57;6.30;99.90
45729;DHT22;31439;53.512;10.206;2023-02-15T12:58:24;6.30;99.90
45729;DHT22;31439;53.512;10.206;2023-02-15T13:03:58;6.30;99.90
45729;DHT22;31439;53.512;10.206;2023-02-15T13:06:26;6.40;99.90
45729;DHT22;31439;53.512;10.206;2023-02-15T13:08:58;6.70;99.90
45729;DHT22;31439;53.512;10.206;2023-02-15T13:11:31;7.10;99.90
45729;DHT22;31439;53.512;10.206;2023-02-15T13:14:15;7.40;99.90
45729;DHT22;31439;53.512;10.206;2023-02-15T13:16:44;7.50;99.90
45729;DHT22;31439;53.512;10.206;2023-02-15T13:19:40;7.50;99.90
45729;DHT22;31439;53.512;10.206;2023-02-15T13:22:17;7.60;99.90
45729;DHT22;31439;53.512;10.206;2023-02-15T13:24:51;7.60;99.90
45729;DHT22;31439;53.512;10.206;2023-02-15T13:27:26;7.50;99.90
45729;DHT22;31439;53.512;10.206;2023-02-15T13:29:56;7.50;99.90
45729;DHT22;31439;53.512;10.206;2023-02-15T13:32:28;7.70;99.90
45729;DHT22;31439;53.512;10.206;2023-02-15T13:35:00;8.10;99.90
45729;DHT22;31439;53.512;10.206;2023-02-15T13:40:59;8.60;99.90
45729;DHT22;31439;53.512;10.206;2023-02-15T13:43:41;9.00;99.90
45729;DHT22;31439;53.512;10.206;2023-02-15T13:51:22;9.60;99.90
45729;DHT22;31439;53.512;10.206;2023-02-15T13:54:03;9.90;99.90
45729;DHT22;31439;53.512;10.206;2023-02-15T14:02:04;10.50;99.90
45729;DHT22;31439;53.512;10.206;2023-02-15T14:15:24;10.00;99.90
45729;DHT22;31439;53.512;10.206;2023-02-15T14:21:01;10.30;99.90
45729;DHT22;31439;53.512;10.206;2023-02-15T14:23:43;10.60;99.90
45729;DHT22;31439;53.512;10.206;2023-02-15T14:26:20;11.00;99.90
45729;DHT22;31439;53.512;10.206;2023-02-15T14:31:35;11.20;99.90
45729;DHT22;31439;53.512;10.206;2023-02-15T14:34:03;11.40;99.90
45729;DHT22;31439;53.512;10.206;2023-02-15T14:36:30;11.60;99.90
45729;DHT22;31439;53.512;10.206;2023-02-15T14:42:30;11.70;99.90
45729;DHT22;31439;53.512;10.206;2023-02-15T14:45:01;11.60;99.90
45729;DHT22;31439;53.512;10.206;2023-02-15T14:47:36;11.40;99.90
45729;DHT22;31439;53.512;10.206;2023-02-15T14:53:22;11.10;99.90
45729;DHT22;31439;53.512;10.206;2023-02-15T14:58:55;10.70;99.90
45729;DHT22;31439;53.512;10.206;2023-02-15T15:01:40;10.30;99.90
45729;DHT22;31439;53.512;10.206;2023-02-15T15:04:21;10.00;99.90
45729;DHT22;31439;53.512;10.206;2023-02-15T15:07:04;9.90;99.90
45729;DHT22;31439;53.512;10.206;2023-02-15T15:09:36;9.70;99.90
45729;DHT22;31439;53.512;10.206;2023-02-15T15:14:46;9.70;99.90
45729;DHT22;31439;53.512;10.206;2023-02-15T15:22:25;9.20;99.90
45729;DHT22;31439;53.512;10.206;2023-02-15T15:25:39;9.10;99.90
45729;DHT22;31439;53.512;10.206;2023-02-15T15:27:52;9.00;99.90
45729;DHT22;31439;53.512;10.206;2023-02-15T15:39:11;8.60;99.90
45729;DHT22;31439;53.512;10.206;2023-02-15T15:49:43;8.30;99.90
45729;DHT22;31439;53.512;10.206;2023-02-15T15:52:19;8.30;99.90
45729;DHT22;31439;53.512;10.206;2023-02-15T15:54:48;8.20;99.90
45729;DHT22;31439;53.512;10.206;2023-02-15T15:57:38;8.20;99.90
45729;DHT22;31439;53.512;10.206;2023-02-15T16:02:52;8.00;99.90
45729;DHT22;31439;53.512;10.206;2023-02-15T16:05:18;8.00;99.90
45729;DHT22;31439;53.512;10.206;2023-02-15T16:07:44;7.90;99.90
45729;DHT22;31439;53.512;10.206;2023-02-15T16:10:30;7.90;99.90
45729;DHT22;31439;53.512;10.206;2023-02-15T16:13:01;7.80;99.90
45729;DHT22;31439;53.512;10.206;2023-02-15T16:15:44;7.80;99.90
45729;DHT22;31439;53.512;10.206;2023-02-15T16:18:15;7.70;99.90
45729;DHT22;31439;53.512;10.206;2023-02-15T16:28:53;7.60;99.90
45729;DHT22;31439;53.512;10.206;2023-02-15T16:31:20;7.50;99.90
45729;DHT22;31439;53.512;10.206;2023-02-15T16:33:47;7.40;99.90
45729;DHT22;31439;53.512;10.206;2023-02-15T16:36:22;7.40;99.90
45729;DHT22;31439;53.512;10.206;2023-02-15T16:41:34;7.30;99.90
45729;DHT22;31439;53.512;10.206;2023-02-15T16:44:06;7.20;99.90
45729;DHT22;31439;53.512;10.206;2023-02-15T16:46:33;7.20;99.90
45729;DHT22;31439;53.512;10.206;2023-02-15T16:49:15;7.10;99.90
45729;DHT22;31439;53.512;10.206;2023-02-15T16:51:43;7.10;99.90
45729;DHT22;31439;53.512;10.206;2023-02-15T16:54:18;7.00;99.90
45729;DHT22;31439;53.512;10.206;2023-02-15T16:56:44;6.90;99.90
45729;DHT22;31439;53.512;10.206;2023-02-15T16:59:27;6.90;99.90
45729;DHT22;31439;53.512;10.206;2023-02-15T17:01:54;6.80;99.90
45729;DHT22;31439;53.512;10.206;2023-02-15T17:07:01;6.80;99.90
45729;DHT22;31439;53.512;10.206;2023-02-15T17:09:28;6.80;99.90
45729;DHT22;31439;53.512;10.206;2023-02-15T17:11:53;6.70;99.90
45729;DHT22;31439;53.512;10.206;2023-02-15T17:14:21;6.60;99.90
45729;DHT22;31439;53.512;10.206;2023-02-15T17:17:12;6.60;99.90
45729;DHT22;31439;53.512;10.206;2023-02-15T17:19:54;6.50;99.90
45729;DHT22;31439;53.512;10.206;2023-02-15T17:22:23;6.50;99.90
45729;DHT22;31439;53.512;10.206;2023-02-15T17:24:57;6.40;99.90
45729;DHT22;31439;53.512;10.206;2023-02-15T17:27:26;6.40;99.90
45729;DHT22;31439;53.512;10.206;2023-02-15T17:29:57;6.40;99.90
45729;DHT22;31439;53.512;10.206;2023-02-15T17:32:27;6.40;99.90
45729;DHT22;31439;53.512;10.206;2023-02-15T17:37:29;6.30;99.90
45729;DHT22;31439;53.512;10.206;2023-02-15T17:39:57;6.20;99.90
45729;DHT22;31439;53.512;10.206;2023-02-15T17:42:23;6.20;99.90
45729;DHT22;31439;53.512;10.206;2023-02-15T17:44:49;6.10;99.90
45729;DHT22;31439;53.512;10.206;2023-02-15T17:47:18;5.90;99.90
45729;DHT22;31439;53.512;10.206;2023-02-15T17:49:44;6.10;99.90
45729;DHT22;31439;53.512;10.206;2023-02-15T17:52:13;6.20;99.90
45729;DHT22;31439;53.512;10.206;2023-02-15T17:54:40;6.10;99.90
45729;DHT22;31439;53.512;10.206;2023-02-15T17:57:24;6.00;99.90
45729;DHT22;31439;53.512;10.206;2023-02-15T17:59:51;6.00;99.90
45729;DHT22;31439;53.512;10.206;2023-02-15T18:02:36;6.00;99.90
45729;DHT22;31439;53.512;10.206;2023-02-15T18:05:20;6.00;99.90
45729;DHT22;31439;53.512;10.206;2023-02-15T18:08:13;6.00;99.90
45729;DHT22;31439;53.512;10.206;2023-02-15T18:10:59;5.90;99.90
45729;DHT22;31439;53.512;10.206;2023-02-15T18:13:44;5.90;99.90
45729;DHT22;31439;53.512;10.206;2023-02-15T18:16:21;5.90;99.90
45729;DHT22;31439;53.512;10.206;2023-02-15T18:18:48;5.90;99.90
45729;DHT22;31439;53.512;10.206;2023-02-15T18:21:14;5.80;99.90
45729;DHT22;31439;53.512;10.206;2023-02-15T18:23:41;5.80;99.90
45729;DHT22;31439;53.512;10.206;2023-02-15T18:26:11;5.80;99.90
45729;DHT22;31439;53.512;10.206;2023-02-15T18:28:37;5.70;99.90
45729;DHT22;31439;53.512;10.206;2023-02-15T18:31:03;5.70;99.90
45729;DHT22;31439;53.512;10.206;2023-02-15T18:33:37;5.70;99.90
45729;DHT22;31439;53.512;10.206;2023-02-15T18:36:05;5.70;99.90
45729;DHT22;31439;53.512;10.206;2023-02-15T18:38:31;5.70;99.90
45729;DHT22;31439;53.512;10.206;2023-02-15T18:40:57;5.70;99.90
45729;DHT22;31439;53.512;10.206;2023-02-15T18:43:23;5.70;99.90
45729;DHT22;31439;53.512;10.206;2023-02-15T18:45:49;5.60;99.90
45729;DHT22;31439;53.512;10.206;2023-02-15T18:48:14;5.60;99.90
45729;DHT22;31439;53.512;10.206;2023-02-15T18:50:40;5.70;99.90
45729;DHT22;31439;53.512;10.206;2023-02-15T18:53:14;5.60;99.90
45729;DHT22;31439;53.512;10.206;2023-02-15T18:55:40;5.60;99.90
45729;DHT22;31439;53.512;10.206;2023-02-15T18:58:15;5.60;99.90
45729;DHT22;31439;53.512;10.206;2023-02-15T19:00:41;5.60;99.90
45729;DHT22;31439;53.512;10.206;2023-02-15T19:03:12;5.60;99.90
45729;DHT22;31439;53.512;10.206;2023-02-15T19:05:38;5.60;99.90
45729;DHT22;31439;53.512;10.206;2023-02-15T19:08:17;5.60;99.90
45729;DHT22;31439;53.512;10.206;2023-02-15T19:10:44;5.60;99.90